Au Sable Forks, NY

10:15 PM EDT on October 22, 2014 (GMT -0400)
AuSable River | Change Station
CLOSE
Current Station
Personal Weather Station
Location: Wilmington, NY
Elevation: 1014 ft
Nearby Weather Stations

Elev 1014 ft 44.40 °N, 73.80 °W | Updated 3 minutes ago

Overcast
Overcast
46.4 °F
Feels Like 46 °F
N
0.0
Wind Variable Wind from East

Today
High -- | Low -- °F
--% Chance of Precip.
Yesterday
High -- | Low -- °F
Precip. -- in
7:18 AM 5:58 PM
Waning Crescent, 1% visible
Pressure 30.15 in
Visibility 10.0 miles
Clouds Mostly Cloudy 4300 ft
Overcast 8500 ft
Windchill 46 °F
Dew Point 41 °F
Humidity 80%
Rainfall 0.00 in
Snow Depth Not available.
UV 0 out of 12
Pollen .10 out of 12
Air Quality Not available.
Flu Activity Sporadic
METAR KPBG 230153Z AUTO 36018KT 10SM BKN043 OVC085 09/03 A3014 RMK AO2 PK WND 01028/0056 RAB08E44 SLP208 P0000 T00890033

More Conditions Fewer Conditions

Pressure 30.15 in
Visibility 10.0 miles
Clouds Mostly Cloudy 4300 ft
Overcast 8500 ft
Windchill 46 °F
Dew Point 41 °F
Humidity 80%
Rainfall 0.00 in
Snow Depth Not available.
UV 0 out of 12
Pollen .10 out of 12
Air Quality Not available.
Flu Activity Sporadic
METAR KPBG 230153Z AUTO 36018KT 10SM BKN043 OVC085 09/03 A3014 RMK AO2 PK WND 01028/0056 RAB08E44 SLP208 P0000 T00890033

More Conditions Fewer Conditions

10-Day Weather Forecast

Almanac

Astronomy

Oct. 22, 2014 Rise Set
Actual Time 7:18 AM EDT 5:58 PM EDT
Civil Twilight 6:49 AM EDT 6:28 PM EDT
Nautical Twilight 6:15 AM EDT 7:02 PM EDT
Astronomical Twilight 5:41 AM EDT 7:35 PM EDT
Moon 5:54 AM EDT (10/22) 5:26 PM EDT (10/22)
Length of Visible Light 11h 39m
Length of Day
10h 40m
Tomorrow will be 2m 53s shorter.
Waning Crescent, 1% of the Moon is Illuminated
Today
Waning Crescent
Oct 23
New
Oct 30
First Quarter
Nov 6
Full
Nov 14
Last Quarter

Today's Extremes

State Highs State Lows

Community

WunderPhotos

Upload Photos

1,764,109 photos uploaded!

Nearby

Air Quality

  Air Quality AQ Index Pollutant
Wednesday Good
PM2.5
Thursday Good
PM2.5

Snow Depth

Station Depth Elevation
No new snow has been reported.

Earthquake Activity

City Distance Mag. Time & Date
No recent earthquake activity has been reported nearby.
Minimum magnitude displayed is 2.5.

Coastal Water Temperatures

Place Temperature
No Stations Reporting

Nearby Weather Stations